Time;durP1;ratioP1;P1;durP2;ratioP2;P2;SDS_P1;SDS_P2;PMS_P1;PMS_P2;Temp;Humidity;BMP_temperature;BMP_pressure;BME280_temperature;BME280_humidity;BME280_pressure;Samples;Min_cycle;Max_cycle;Signal;HPM_P1;HPM_P2
2020/12/14 00:00:24;;;;;;;22.57;3.93;;;;;;;11.74;100.00;99817.33;1853118;75;936781;-75
2020/12/14 00:02:54;;;;;;;18.53;3.30;;;;;;;11.63;100.00;99824.27;1845397;76;935126;-74
2020/12/14 00:05:24;;;;;;;18.40;3.70;;;;;;;11.71;100.00;99814.33;1853700;75;936790;-75
2020/12/14 00:07:53;;;;;;;21.53;4.37;;;;;;;11.77;100.00;99806.12;1845399;77;934720;-75
2020/12/14 00:10:23;;;;;;;19.60;4.40;;;;;;;11.80;100.00;99805.50;1853233;75;936619;-75
2020/12/14 00:12:54;;;;;;;19.43;4.07;;;;;;;11.80;100.00;99795.20;1845347;76;934742;-75
2020/12/14 00:15:24;;;;;;;22.50;4.07;;;;;;;11.81;100.00;99798.20;1853875;75;936677;-75
2020/12/14 00:17:54;;;;;;;16.30;3.87;;;;;;;11.82;100.00;99788.73;1845317;77;934708;-75
2020/12/14 00:20:24;;;;;;;18.53;4.10;;;;;;;11.84;100.00;99782.28;1853569;75;936606;-75
2020/12/14 00:22:54;;;;;;;22.57;3.80;;;;;;;11.83;100.00;99782.03;1866048;75;934994;-75
2020/12/14 00:25:24;;;;;;;13.10;3.67;;;;;;;11.82;100.00;99773.42;1832172;76;936673;-75
2020/12/14 00:27:54;;;;;;;20.63;3.93;;;;;;;11.87;100.00;99787.77;1865839;76;934738;-75
2020/12/14 00:30:24;;;;;;;17.53;3.63;;;;;;;11.88;100.00;99775.50;1833126;76;936572;-75
2020/12/14 00:32:54;;;;;;;12.67;4.00;;;;;;;11.95;100.00;99783.38;1865818;75;934531;-75
2020/12/14 00:35:26;;;;;;;15.10;4.00;;;;;;;11.96;100.00;99773.33;1854215;75;936479;-75
2020/12/14 00:37:57;;;;;;;20.43;4.12;;;;;;;12.01;100.00;99775.16;1865996;75;934826;-74
2020/12/14 00:40:29;;;;;;;18.03;4.10;;;;;;;11.98;100.00;99764.08;1865824;75;935409;-74
2020/12/14 00:42:59;;;;;;;22.40;3.80;;;;;;;11.92;100.00;99763.98;1865347;76;934803;-74
2020/12/14 00:45:29;;;;;;;18.70;3.53;;;;;;;11.97;100.00;99756.89;1845086;76;936606;-75
2020/12/14 00:47:59;;;;;;;23.53;4.87;;;;;;;11.89;100.00;99749.33;1865960;76;934795;-75
2020/12/14 00:50:29;;;;;;;21.13;4.23;;;;;;;11.89;100.00;99750.72;1865905;75;936551;-75
2020/12/14 00:52:59;;;;;;;21.13;4.47;;;;;;;11.91;100.00;99755.38;1845308;76;934641;-74
2020/12/14 00:55:29;;;;;;;17.80;4.17;;;;;;;11.90;100.00;99743.99;1865862;76;936639;-74
2020/12/14 00:57:58;;;;;;;17.47;3.50;;;;;;;11.85;100.00;99746.34;1865959;75;934452;-75
2020/12/14 01:00:28;;;;;;;14.10;3.77;;;;;;;11.88;100.00;99753.81;1865704;75;936562;-75
2020/12/14 01:02:58;;;;;;;19.27;3.90;;;;;;;11.85;100.00;99760.25;1865607;75;934499;-74
2020/12/14 01:05:28;;;;;;;22.53;4.67;;;;;;;11.94;100.00;99757.52;1845425;76;936616;-75
2020/12/14 01:07:58;;;;;;;18.40;3.50;;;;;;;11.95;100.00;99749.98;1865863;75;934649;-74
2020/12/14 01:10:28;;;;;;;21.53;4.17;;;;;;;11.92;100.00;99756.20;1845460;76;936777;-75
2020/12/14 01:12:58;;;;;;;17.73;3.63;;;;;;;11.94;100.00;99750.55;1865775;75;934736;-74
2020/12/14 01:15:28;;;;;;;24.70;5.57;;;;;;;11.86;100.00;99747.99;1866049;76;936765;-75
2020/12/14 01:17:58;;;;;;;16.20;3.73;;;;;;;11.78;100.00;99750.17;1845359;76;934650;-75
2020/12/14 01:20:28;;;;;;;21.40;4.20;;;;;;;11.86;100.00;99743.00;1865939;75;936739;-75
2020/12/14 01:22:57;;;;;;;17.33;3.47;;;;;;;12.01;100.00;99746.76;1866043;75;934591;-74
2020/12/14 01:25:27;;;;;;;18.30;4.70;;;;;;;12.05;100.00;99742.19;1842945;76;936527;-75
2020/12/14 01:27:57;;;;;;;17.73;4.27;;;;;;;12.08;100.00;99747.67;1866169;75;934784;-74
2020/12/14 01:30:27;;;;;;;19.23;3.97;;;;;;;12.09;100.00;99745.14;1866369;76;936538;-75
2020/12/14 01:32:57;;;;;;;17.93;4.70;;;;;;;12.08;100.00;99737.92;1845507;76;934729;-75
2020/12/14 01:35:27;;;;;;;20.60;3.60;;;;;;;12.04;100.00;99742.50;1865963;75;935975;-75
2020/12/14 01:37:57;;;;;;;18.37;4.00;;;;;;;12.08;100.00;99740.71;1845144;76;934778;-75
2020/12/14 01:40:27;;;;;;;19.37;5.83;;;;;;;12.15;100.00;99746.65;1866202;76;936565;-75
2020/12/14 01:42:57;;;;;;;13.93;4.37;;;;;;;12.24;100.00;99740.51;1845424;76;934641;-75
2020/12/14 01:45:27;;;;;;;21.43;4.27;;;;;;;12.30;100.00;99735.88;1865877;76;936642;-74
2020/12/14 01:47:59;;;;;;;22.03;4.33;;;;;;;12.26;100.00;99733.49;1845419;77;934647;-75
2020/12/14 01:50:29;;;;;;;17.43;5.57;;;;;;;12.23;100.00;99731.94;1865952;76;936811;-75
2020/12/14 01:53:01;;;;;;;21.43;5.83;;;;;;;12.24;100.00;99738.55;1845387;77;934609;-75
2020/12/14 01:55:34;;;;;;;18.13;3.43;;;;;;;12.20;100.00;99740.34;1865841;75;936669;-74
2020/12/14 01:58:04;;;;;;;19.33;6.03;;;;;;;12.31;100.00;99745.05;1833373;76;936739;-75
2020/12/14 02:00:34;;;;;;;20.60;3.73;;;;;;;12.33;100.00;99747.75;1866040;76;936629;-75
2020/12/14 02:03:05;;;;;;;20.17;4.63;;;;;;;12.31;100.00;99740.88;1852928;76;936623;-75
2020/12/14 02:05:34;;;;;;;16.53;3.53;;;;;;;12.37;100.00;99749.31;1866293;75;936475;-74
2020/12/14 02:08:05;;;;;;;17.70;4.23;;;;;;;12.40;100.00;99746.47;1853867;75;936547;-75
2020/12/14 02:10:35;;;;;;;17.37;3.70;;;;;;;12.29;100.00;99737.02;1845465;76;936686;-75
2020/12/14 02:13:05;;;;;;;16.63;3.07;;;;;;;12.24;100.00;99734.37;1853946;75;938616;-74
2020/12/14 02:15:34;;;;;;;16.97;3.57;;;;;;;12.29;100.00;99732.02;1865486;76;936650;-74
2020/12/14 02:18:05;;;;;;;16.17;3.73;;;;;;;12.22;100.00;99726.11;1833278;76;936606;-75
2020/12/14 02:20:35;;;;;;;18.77;3.63;;;;;;;12.36;100.00;99722.62;1866012;76;936711;-75
2020/12/14 02:23:05;;;;;;;13.57;4.13;;;;;;;12.32;100.00;99721.04;1833080;76;936611;-75
2020/12/14 02:25:34;;;;;;;16.83;4.23;;;;;;;12.32;100.00;99721.64;1866016;75;936520;-75
2020/12/14 02:28:04;;;;;;;20.47;3.37;;;;;;;12.40;100.00;99714.44;1833254;76;936928;-75
2020/12/14 02:30:34;;;;;;;16.27;2.90;;;;;;;12.48;100.00;99717.81;1865905;75;936570;-74
2020/12/14 02:33:04;;;;;;;14.10;3.83;;;;;;;12.49;100.00;99716.67;1833169;77;936638;-75
2020/12/14 02:35:34;;;;;;;14.03;3.30;;;;;;;12.50;100.00;99719.69;1866077;76;936510;-74
2020/12/14 02:38:06;;;;;;;21.30;4.00;;;;;;;12.49;100.00;99723.06;1853359;75;936770;-75
2020/12/14 02:40:35;;;;;;;21.60;3.80;;;;;;;12.47;100.00;99720.34;1866061;76;936730;-75
2020/12/14 02:43:05;;;;;;;16.37;3.70;;;;;;;12.57;100.00;99720.03;1833342;76;935481;-74
2020/12/14 02:45:37;;;;;;;17.80;3.20;;;;;;;12.59;100.00;99712.98;1865908;76;936631;-75
2020/12/14 02:48:07;;;;;;;18.33;3.37;;;;;;;12.52;100.00;99709.88;1833179;76;940789;-75
2020/12/14 02:50:37;;;;;;;16.87;3.13;;;;;;;12.50;100.00;99704.36;1845279;76;936541;-75
2020/12/14 02:53:07;;;;;;;17.03;3.30;;;;;;;12.53;100.00;99701.77;1853635;76;936642;-75
2020/12/14 02:55:36;;;;;;;22.57;3.40;;;;;;;12.54;100.00;99694.20;1845321;77;936618;-74
2020/12/14 02:58:06;;;;;;;16.20;4.67;;;;;;;12.53;100.00;99691.20;1853506;75;940490;-75
2020/12/14 03:00:36;;;;;;;21.70;4.83;;;;;;;12.58;100.00;99697.41;1845357;76;936596;-75
2020/12/14 03:03:08;;;;;;;13.63;3.23;;;;;;;12.65;100.00;99695.55;1853660;75;936508;-74
2020/12/14 03:05:37;;;;;;;13.37;3.67;;;;;;;12.68;100.00;99694.88;1845375;76;937075;-75
2020/12/14 03:08:07;;;;;;;14.80;4.03;;;;;;;12.61;100.00;99696.77;1853680;76;936985;-75
2020/12/14 03:10:38;;;;;;;12.57;3.40;;;;;;;12.61;100.00;99692.59;1865626;75;936707;-74
2020/12/14 03:13:08;;;;;;;18.67;3.52;;;;;;;12.61;100.00;99687.59;1833731;76;939634;-74
2020/12/14 03:15:40;;;;;;;18.10;3.67;;;;;;;12.62;100.00;99686.45;1866006;75;936636;-74
2020/12/14 03:18:10;;;;;;;17.00;3.90;;;;;;;12.70;100.00;99687.86;1853568;75;936676;-75
2020/12/14 03:20:40;;;;;;;23.50;4.30;;;;;;;12.65;100.00;99690.80;1845497;76;936621;-75
2020/12/14 03:23:10;;;;;;;19.62;3.72;;;;;;;12.66;100.00;99689.63;1853826;75;936518;-75
2020/12/14 03:25:43;;;;;;;20.63;4.37;;;;;;;12.68;100.00;99689.31;1865943;76;936593;-75
2020/12/14 03:28:12;;;;;;;15.45;3.62;;;;;;;12.64;100.00;99693.33;1833370;76;936706;-74
2020/12/14 03:30:42;;;;;;;16.80;3.93;;;;;;;12.54;100.00;99704.78;1865818;76;936673;-74
2020/12/14 03:33:12;;;;;;;15.38;3.20;;;;;;;12.49;100.00;99707.75;1853586;76;936527;-75
2020/12/14 03:35:42;;;;;;;20.03;3.63;;;;;;;12.49;100.00;99706.92;1865903;75;936611;-74
2020/12/14 03:38:12;;;;;;;19.07;3.33;;;;;;;12.43;100.00;99714.61;1833326;76;936568;-75
2020/12/14 03:40:42;;;;;;;14.50;3.13;;;;;;;12.45;100.00;99715.69;1866243;76;936691;-75
2020/12/14 03:43:12;;;;;;;14.45;3.50;;;;;;;12.39;100.00;99740.08;1833064;76;936682;-75
2020/12/14 03:45:42;;;;;;;9.83;2.60;;;;;;;12.36;100.00;99746.30;1865874;75;936547;-75
2020/12/14 03:48:12;;;;;;;13.23;2.50;;;;;;;12.26;100.00;99754.38;1833391;76;934604;-75
2020/12/14 03:50:43;;;;;;;12.23;2.30;;;;;;;12.19;100.00;99764.34;1865723;75;936684;-75
2020/12/14 03:53:13;;;;;;;6.00;2.20;;;;;;;12.14;100.00;99738.05;1833007;76;936649;-74
2020/12/14 03:55:43;;;;;;;10.83;2.67;;;;;;;12.07;100.00;99741.84;1866442;76;934552;-74
2020/12/14 03:58:14;;;;;;;8.58;1.60;;;;;;;12.00;100.00;99745.11;1833552;76;936717;-75
2020/12/14 04:00:48;;;;;;;11.67;1.83;;;;;;;11.90;100.00;99730.08;1865991;75;934597;-74
2020/12/14 04:03:18;;;;;;;11.38;2.20;;;;;;;11.82;100.00;99730.87;1853614;75;936623;-75
2020/12/14 04:05:48;;;;;;;6.23;1.90;;;;;;;11.71;100.00;99741.44;1866051;75;934717;-75
2020/12/14 04:08:18;;;;;;;8.23;2.52;;;;;;;11.66;100.00;99749.91;1854003;76;934601;-75
2020/12/14 04:10:48;;;;;;;6.80;1.80;;;;;;;11.51;100.00;99757.25;1866271;75;932603;-75
2020/12/14 04:13:19;;;;;;;6.90;1.85;;;;;;;11.47;100.00;99761.02;1833398;77;934549;-75
2020/12/14 04:15:48;;;;;;;9.20;1.77;;;;;;;11.48;100.00;99769.59;1865943;75;932596;-74
2020/12/14 04:18:18;;;;;;;8.73;3.67;;;;;;;11.36;100.00;99772.39;1833259;76;934774;-74
2020/12/14 04:20:48;;;;;;;11.77;4.67;;;;;;;11.31;100.00;99766.95;1865966;75;932513;-75
2020/12/14 04:23:18;;;;;;;3.97;1.93;;;;;;;11.26;100.00;99763.47;1833312;76;937659;-74
2020/12/14 04:25:47;;;;;;;6.60;3.20;;;;;;;11.20;100.00;99777.26;1866020;75;932574;-74
2020/12/14 04:28:17;;;;;;;13.10;5.97;;;;;;;11.18;100.00;99775.34;1832240;77;934522;-74
2020/12/14 04:30:47;;;;;;;6.03;2.93;;;;;;;11.15;100.00;99763.48;1865853;76;934738;-74
2020/12/14 04:33:17;;;;;;;3.60;1.13;;;;;;;11.13;100.00;99766.56;1853455;75;934730;-74
2020/12/14 04:35:47;;;;;;;3.63;0.90;;;;;;;11.01;100.00;99763.53;1865988;75;932862;-74
2020/12/14 04:38:17;;;;;;;5.10;1.80;;;;;;;11.00;100.00;99744.39;1853948;75;934483;-74
2020/12/14 04:40:46;;;;;;;2.77;1.50;;;;;;;11.00;100.00;99727.16;1845488;76;932647;-75
2020/12/14 04:43:18;;;;;;;9.40;1.70;;;;;;;11.10;100.00;99732.47;1853791;75;934578;-74
2020/12/14 04:45:51;;;;;;;7.77;1.23;;;;;;;11.06;100.00;99752.86;1866345;76;932935;-75
2020/12/14 04:48:27;;;;;;;7.33;1.80;;;;;;;11.03;100.00;99745.17;1853876;75;934579;-74
2020/12/14 04:51:00;;;;;;;3.97;1.30;;;;;;;11.02;100.00;99744.91;1866024;76;932600;-74
2020/12/14 04:53:32;;;;;;;2.17;1.00;;;;;;;10.96;100.00;99757.53;1866526;76;934517;-75
2020/12/14 04:56:07;;;;;;;7.20;1.83;;;;;;;10.90;100.00;99762.14;1831777;76;934723;-75
2020/12/14 04:58:40;;;;;;;6.30;1.37;;;;;;;10.88;100.00;99767.17;1865331;76;934592;-74
2020/12/14 05:01:12;;;;;;;8.27;1.47;;;;;;;10.76;100.00;99781.63;1842013;75;934389;-74
2020/12/14 05:03:43;;;;;;;4.93;1.27;;;;;;;10.76;100.00;99791.34;1845499;76;934671;-74
2020/12/14 05:06:15;;;;;;;6.75;1.17;;;;;;;10.72;100.00;99783.38;1853977;75;934494;-74
2020/12/14 05:08:47;;;;;;;5.80;1.53;;;;;;;10.65;100.00;99783.56;1866027;76;934597;-75
2020/12/14 05:11:34;;;;;;;3.57;0.73;;;;;;;10.71;100.00;99785.90;1833175;76;934503;-75
2020/12/14 05:14:16;;;;;;;3.13;1.23;;;;;;;10.60;100.00;99792.00;1853465;75;934632;-75
2020/12/14 05:16:46;;;;;;;6.17;1.30;;;;;;;10.58;100.00;99802.58;1845352;76;934771;-74
2020/12/14 05:19:22;;;;;;;4.62;1.57;;;;;;;10.62;100.00;99809.16;1853794;75;934464;-75
2020/12/14 05:21:54;;;;;;;5.20;1.20;;;;;;;10.60;100.00;99822.55;1865605;76;932725;-75
2020/12/14 05:24:25;;;;;;;8.17;1.27;;;;;;;10.64;100.00;99827.17;1853616;75;934528;-74
2020/12/14 05:26:56;;;;;;;5.97;1.20;;;;;;;10.68;100.00;99819.86;1845352;77;932608;-74
2020/12/14 05:29:28;;;;;;;7.13;1.40;;;;;;;10.66;100.00;99827.66;1865852;76;934419;-75
2020/12/14 05:32:06;;;;;;;7.80;1.70;;;;;;;10.67;100.00;99827.92;1845431;76;932938;-75
2020/12/14 05:34:38;;;;;;;5.13;1.33;;;;;;;10.71;100.00;99830.33;1865818;75;934704;-75
2020/12/14 05:37:10;;;;;;;9.27;2.10;;;;;;;10.74;100.00;99821.97;1832886;75;934504;-75
2020/12/14 05:39:41;;;;;;;8.13;1.80;;;;;;;10.72;100.00;99825.05;1865794;75;934667;-75
2020/12/14 05:42:13;;;;;;;10.05;2.25;;;;;;;10.66;100.00;99822.67;1853750;75;934399;-74
2020/12/14 05:44:45;;;;;;;9.13;2.00;;;;;;;10.67;100.00;99827.10;1866087;75;936579;-74
2020/12/14 05:47:25;;;;;;;14.67;2.43;;;;;;;10.59;100.00;99826.44;1854413;75;934448;-75
2020/12/14 05:49:56;;;;;;;10.90;1.90;;;;;;;10.56;100.00;99830.67;1865973;75;934701;-75
2020/12/14 05:52:31;;;;;;;12.27;2.43;;;;;;;10.57;100.00;99826.74;1833490;76;936579;-75
2020/12/14 05:55:04;;;;;;;8.73;1.87;;;;;;;10.47;100.00;99831.14;1853291;76;936919;-76
2020/12/14 05:57:36;;;;;;;14.50;2.00;;;;;;;10.43;100.00;99828.73;1866016;75;934449;-75
2020/12/14 06:00:09;;;;;;;11.45;2.25;;;;;;;10.48;100.00;99832.80;1832977;76;936690;-74
2020/12/14 06:02:39;;;;;;;9.03;1.67;;;;;;;10.46;100.00;99830.31;1866035;75;936645;-74
2020/12/14 06:05:10;;;;;;;14.10;2.90;;;;;;;10.29;100.00;99841.77;1833177;76;933721;-74
2020/12/14 06:07:41;;;;;;;12.43;2.40;;;;;;;10.29;100.00;99841.77;1865622;75;936629;-75
2020/12/14 06:10:14;;;;;;;14.40;2.40;;;;;;;10.40;100.00;99845.98;1833149;76;936703;-75
2020/12/14 06:12:45;;;;;;;10.83;2.47;;;;;;;10.37;100.00;99849.38;1865552;75;936545;-74
2020/12/14 06:15:17;;;;;;;10.85;2.55;;;;;;;10.36;100.00;99858.83;1833426;76;936576;-75
2020/12/14 06:17:47;;;;;;;11.70;2.50;;;;;;;10.45;100.00;99861.15;1865962;76;934820;-74
2020/12/14 06:20:20;;;;;;;11.20;2.50;;;;;;;10.36;100.00;99869.38;1832783;77;936580;-75
2020/12/14 06:22:52;;;;;;;9.93;2.33;;;;;;;10.36;100.00;99867.16;1866060;76;934741;-74
2020/12/14 06:25:24;;;;;;;9.33;2.23;;;;;;;10.35;100.00;99864.15;1833284;76;934493;-75
2020/12/14 06:27:54;;;;;;;10.73;2.10;;;;;;;10.32;100.00;99865.57;1866067;75;932554;-74
2020/12/14 06:30:31;;;;;;;11.90;2.40;;;;;;;10.33;100.00;99868.61;1853897;75;936631;-74
2020/12/14 06:33:05;;;;;;;16.23;3.07;;;;;;;10.28;100.00;99869.27;1853253;75;936600;-76
2020/12/14 06:35:47;;;;;;;18.67;3.13;;;;;;;10.30;100.00;99865.63;1865825;75;936602;-74
2020/12/14 06:38:38;;;;;;;14.80;2.77;;;;;;;10.27;100.00;99868.44;1833414;76;936703;-75
2020/12/14 06:41:15;;;;;;;11.20;2.15;;;;;;;10.36;100.00;99870.77;1853698;75;936633;-75
2020/12/14 06:43:46;;;;;;;19.57;2.97;;;;;;;10.37;100.00;99866.86;1845386;77;936592;-74
2020/12/14 06:46:26;;;;;;;17.07;2.85;;;;;;;10.42;100.00;99874.27;1853849;76;937045;-74
2020/12/14 06:48:56;;;;;;;16.37;2.83;;;;;;;10.39;100.00;99873.51;1845516;76;934738;-74
2020/12/14 06:51:27;;;;;;;18.20;4.40;;;;;;;10.47;100.00;99876.39;1865971;75;936835;-74
2020/12/14 06:53:57;;;;;;;18.67;2.83;;;;;;;10.46;100.00;99878.91;1844909;76;935008;-73
2020/12/14 06:56:46;;;;;;;16.63;3.07;;;;;;;10.55;100.00;99874.02;1865739;76;936646;-74
2020/12/14 06:59:35;;;;;;;14.28;2.70;;;;;;;10.45;100.00;99878.63;1854000;75;936810;-74
2020/12/14 07:02:07;;;;;;;20.08;3.62;;;;;;;10.47;100.00;99879.16;1853718;75;936768;-75
2020/12/14 07:04:43;;;;;;;17.00;3.97;;;;;;;10.48;100.00;99870.27;1866158;75;935515;-75
2020/12/14 07:07:33;;;;;;;20.50;3.95;;;;;;;10.54;100.00;99873.19;1832345;76;936574;-75
2020/12/14 07:10:15;;;;;;;15.33;2.30;;;;;;;10.60;100.00;99879.47;1853615;75;936519;-74
2020/12/14 07:12:49;;;;;;;15.20;2.87;;;;;;;10.60;100.00;99876.12;1866183;76;936617;-74
2020/12/14 07:15:30;;;;;;;21.52;3.12;;;;;;;10.61;100.00;99879.73;1833300;77;936618;-74
2020/12/14 07:18:08;;;;;;;13.67;2.80;;;;;;;10.60;100.00;99883.07;1866474;75;934786;-74
2020/12/14 07:21:06;;;;;;;19.00;3.33;;;;;;;10.54;100.00;99882.08;1866206;75;936700;-74
2020/12/14 07:23:33;;;;;;;18.47;3.40;;;;;;;10.47;100.00;99877.78;1866034;75;936615;-74
2020/12/14 07:26:04;;;;;;;19.13;2.97;;;;;;;10.55;100.00;99883.73;1833464;76;936603;-75
2020/12/14 07:28:38;;;;;;;16.03;3.30;;;;;;;10.55;100.00;99899.83;1866096;75;936641;-74
2020/12/14 07:31:11;;;;;;;16.32;3.30;;;;;;;10.56;100.00;99899.27;1854012;76;936639;-74
2020/12/14 07:33:43;;;;;;;17.93;4.03;;;;;;;10.52;100.00;99907.95;1865774;76;936877;-74
2020/12/14 07:36:13;;;;;;;17.82;3.45;;;;;;;10.58;100.00;99903.93;1853763;75;936822;-74
2020/12/14 07:38:48;;;;;;;19.17;3.40;;;;;;;10.67;100.00;99906.25;1866098;75;936599;-75
2020/12/14 07:41:18;;;;;;;16.07;3.30;;;;;;;10.63;100.00;99917.16;1833353;76;936601;-74
2020/12/14 07:43:54;;;;;;;17.70;3.30;;;;;;;10.61;100.00;99916.63;1866209;76;934669;-74
2020/12/14 07:46:33;;;;;;;16.17;3.70;;;;;;;10.63;100.00;99912.99;1833286;77;936668;-75
2020/12/14 07:49:06;;;;;;;28.43;4.23;;;;;;;10.71;100.00;99915.05;1853754;75;936763;-74
2020/12/14 07:51:37;;;;;;;19.90;3.40;;;;;;;10.65;100.00;99920.46;1865592;76;936659;-74
2020/12/14 07:54:10;;;;;;;17.27;3.58;;;;;;;10.67;100.00;99925.69;1833381;76;936681;-75
2020/12/14 07:56:57;;;;;;;18.63;4.40;;;;;;;10.63;100.00;99932.43;1866057;75;936597;-75
2020/12/14 07:59:26;;;;;;;22.10;5.17;;;;;;;10.60;100.00;99937.78;1853789;75;936588;-75
2020/12/14 08:01:58;;;;;;;16.40;3.00;;;;;;;10.76;100.00;99940.50;1845464;76;934946;-74
2020/12/14 08:04:33;;;;;;;17.83;3.60;;;;;;;10.67;100.00;99946.52;1865707;75;935599;-74
2020/12/14 08:07:03;;;;;;;17.50;3.90;;;;;;;10.65;100.00;99951.02;1830890;77;936669;-74
2020/12/14 08:09:36;;;;;;;27.30;4.67;;;;;;;10.59;100.00;99952.79;1837516;76;936536;-75
2020/12/14 08:12:07;;;;;;;22.57;4.13;;;;;;;10.67;100.00;99950.68;1830424;76;936582;-75
2020/12/14 08:14:38;;;;;;;17.27;3.77;;;;;;;10.74;100.00;99964.41;1845491;76;936570;-76
2020/12/14 08:17:13;;;;;;;16.77;3.87;;;;;;;10.76;100.00;99968.28;1833772;76;936667;-75
2020/12/14 08:19:45;;;;;;;21.90;4.47;;;;;;;10.77;100.00;99951.88;1845625;76;936715;-75
2020/12/14 08:22:17;;;;;;;18.75;4.22;;;;;;;10.87;100.00;99946.09;1853903;75;936547;-78
2020/12/14 08:24:48;;;;;;;21.63;4.27;;;;;;;10.84;100.00;99947.55;1845495;76;934792;-80
2020/12/14 08:27:21;;;;;;;22.48;5.55;;;;;;;10.82;100.00;99944.84;1852981;75;936653;-76
2020/12/14 08:29:57;;;;;;;18.93;3.77;;;;;;;10.80;100.00;99954.86;1865953;75;934863;-74
2020/12/14 08:32:27;;;;;;;21.83;4.60;;;;;;;10.79;100.00;99978.77;1865768;75;936626;-77
2020/12/14 08:34:57;;;;;;;18.47;3.83;;;;;;;10.80;100.00;99985.41;1866130;75;934837;-76
2020/12/14 08:37:27;;;;;;;23.27;4.53;;;;;;;10.95;100.00;99975.97;1866132;75;936615;-78
2020/12/14 08:40:01;;;;;;;23.03;4.03;;;;;;;10.92;100.00;99972.39;1845525;76;934671;-75
2020/12/14 08:42:32;;;;;;;17.43;3.53;;;;;;;10.92;100.00;99973.22;1866858;75;936712;-75
2020/12/14 08:45:17;;;;;;;22.10;4.27;;;;;;;10.92;100.00;99981.55;1833374;76;936651;-76
2020/12/14 08:47:47;;;;;;;27.63;4.87;;;;;;;11.02;100.00;99993.59;1865842;76;934764;-75
2020/12/14 08:50:20;;;;;;;20.73;4.37;;;;;;;11.07;100.00;99992.11;1853840;76;936682;-75
2020/12/14 08:53:00;;;;;;;25.73;4.07;;;;;;;11.04;100.00;100000.48;1866427;75;934890;-75
2020/12/14 08:55:38;;;;;;;17.17;3.90;;;;;;;11.11;100.00;100002.86;1845413;76;938848;-75
2020/12/14 08:58:09;;;;;;;18.07;3.65;;;;;;;11.09;100.00;100012.89;1853688;76;939043;-75
2020/12/14 09:00:39;;;;;;;19.70;3.97;;;;;;;11.19;100.00;100011.30;1866240;76;938758;-76
2020/12/14 09:03:09;;;;;;;18.25;4.15;;;;;;;11.18;100.00;100024.11;1832625;76;938773;-76
2020/12/14 09:05:39;;;;;;;21.37;4.13;;;;;;;11.23;100.00;100019.84;1865920;76;938838;-75
2020/12/14 09:08:17;;;;;;;21.70;4.12;;;;;;;11.33;100.00;100021.85;1853685;76;938815;-75
2020/12/14 09:10:59;;;;;;;20.13;4.77;;;;;;;11.36;100.00;100025.95;1845350;77;936734;-75
2020/12/14 09:13:29;;;;;;;25.93;5.37;;;;;;;11.41;100.00;100027.24;1865996;76;938629;-75
2020/12/14 09:16:01;;;;;;;21.00;4.73;;;;;;;11.34;100.00;100029.60;1865975;76;936841;-75
2020/12/14 09:18:33;;;;;;;19.63;4.50;;;;;;;11.33;100.00;100035.75;1865984;76;938682;-75
2020/12/14 09:21:06;;;;;;;19.10;4.33;;;;;;;11.32;100.00;100042.44;1853687;75;943778;-75
2020/12/14 09:23:36;;;;;;;17.73;4.83;;;;;;;11.40;100.00;100042.27;1865429;76;938855;-75
2020/12/14 09:26:06;;;;;;;19.77;4.20;;;;;;;11.45;100.00;100039.39;1833035;76;938709;-75
2020/12/14 09:28:36;;;;;;;18.53;3.87;;;;;;;11.45;100.00;100046.91;1865588;76;938764;-74
2020/12/14 09:31:10;;;;;;;18.50;4.47;;;;;;;11.41;100.00;100032.80;1853652;76;938931;-76
2020/12/14 09:33:40;;;;;;;23.33;5.33;;;;;;;11.46;100.00;100034.66;1845262;77;938694;-75
2020/12/14 09:36:15;;;;;;;26.93;4.55;;;;;;;11.38;100.00;100035.62;1853590;76;938762;-76
2020/12/14 09:38:45;;;;;;;21.10;5.00;;;;;;;11.39;100.00;100039.23;1865995;76;938706;-75
2020/12/14 09:41:15;;;;;;;22.27;5.10;;;;;;;11.47;100.00;100035.72;1853794;75;938742;-77
2020/12/14 09:43:45;;;;;;;24.10;5.57;;;;;;;11.48;100.00;100027.64;1865850;76;938765;-76
2020/12/14 09:46:15;;;;;;;19.63;5.27;;;;;;;11.50;100.00;100030.94;1833258;77;938809;-76
2020/12/14 09:48:45;;;;;;;25.07;6.07;;;;;;;11.50;100.00;100027.34;1866832;75;938622;-76
2020/12/14 09:51:15;;;;;;;19.57;5.47;;;;;;;11.54;100.00;100026.97;1833315;76;938565;-76
2020/12/14 09:53:45;;;;;;;19.63;5.67;;;;;;;11.61;100.00;100030.14;1866027;76;938770;-76
2020/12/14 09:56:15;;;;;;;24.17;4.73;;;;;;;11.64;100.00;100030.33;1833293;76;937592;-76
2020/12/14 09:58:45;;;;;;;19.33;4.47;;;;;;;11.76;100.00;100036.23;1866117;75;938668;-75
2020/12/14 10:01:15;;;;;;;21.15;5.35;;;;;;;11.71;100.00;100037.70;1853886;75;938875;-75
2020/12/14 10:03:45;;;;;;;16.07;4.03;;;;;;;11.72;100.00;100024.65;1845417;77;938775;-76
2020/12/14 10:06:16;;;;;;;20.02;4.78;;;;;;;11.78;100.00;100022.81;1853602;75;938891;-79
2020/12/14 10:08:50;;;;;;;25.67;4.80;;;;;;;11.82;100.00;100021.05;1865969;76;936763;-75
2020/12/14 10:11:25;;;;;;;28.13;4.60;;;;;;;11.98;100.00;100020.70;1853559;75;938791;-75
2020/12/14 10:13:55;;;;;;;24.07;5.03;;;;;;;12.04;100.00;100039.73;1845514;77;936739;-76
2020/12/14 10:16:27;;;;;;;23.77;4.90;;;;;;;12.03;100.00;100050.61;1865962;75;938770;-76
2020/12/14 10:18:58;;;;;;;16.83;4.50;;;;;;;12.04;100.00;100041.70;1845508;77;936788;-76
2020/12/14 10:21:28;;;;;;;17.53;4.70;;;;;;;12.07;100.00;100045.23;1866028;75;938831;-75
2020/12/14 10:23:58;;;;;;;23.10;6.10;;;;;;;12.13;100.00;100043.98;1845587;76;936785;-75
2020/12/14 10:26:28;;;;;;;18.13;4.97;;;;;;;12.16;100.00;100049.74;1865984;76;938627;-76
2020/12/14 10:28:58;;;;;;;17.63;3.67;;;;;;;12.18;100.00;100057.22;1845498;76;936845;-76
2020/12/14 10:31:28;;;;;;;18.63;3.87;;;;;;;12.45;100.00;100047.91;1865943;75;938689;-76
2020/12/14 10:33:59;;;;;;;24.60;5.87;;;;;;;12.47;100.00;100042.85;1845436;77;936768;-76
2020/12/14 10:36:29;;;;;;;19.80;4.60;;;;;;;12.47;100.00;100042.85;1866065;76;938910;-76
2020/12/14 10:38:59;;;;;;;17.13;4.20;;;;;;;12.61;100.00;100043.61;1845463;76;936759;-75
2020/12/14 10:41:29;;;;;;;22.03;5.73;;;;;;;12.66;100.00;100042.66;1865928;76;938684;-76
2020/12/14 10:43:59;;;;;;;22.10;4.97;;;;;;;12.56;100.00;100032.59;1865939;76;936906;-76
2020/12/14 10:46:29;;;;;;;26.20;5.30;;;;;;;12.58;100.00;100028.91;1845476;76;938884;-76
2020/12/14 10:48:59;;;;;;;19.63;4.80;;;;;;;12.59;100.00;100037.52;1866232;76;936697;-76
2020/12/14 10:51:28;;;;;;;19.13;4.23;;;;;;;12.56;100.00;100031.77;1845515;76;938812;-76
2020/12/14 10:53:58;;;;;;;16.93;4.10;;;;;;;12.57;100.00;100032.86;1866026;75;936944;-76
2020/12/14 10:56:28;;;;;;;21.70;4.83;;;;;;;12.63;100.00;100033.52;1845462;76;938793;-76
2020/12/14 10:58:58;;;;;;;18.13;4.03;;;;;;;12.65;100.00;100037.66;1866206;75;936868;-76
2020/12/14 11:01:28;;;;;;;20.83;4.47;;;;;;;12.61;100.00;100041.39;1844204;77;938981;-75
2020/12/14 11:03:58;;;;;;;18.50;4.30;;;;;;;12.64;100.00;100040.18;1866301;75;936775;-75
2020/12/14 11:06:32;;;;;;;21.10;4.53;;;;;;;12.63;100.00;100036.30;1845721;76;938730;-75
2020/12/14 11:09:02;;;;;;;15.73;3.97;;;;;;;12.66;100.00;100027.34;1853939;75;938911;-76
2020/12/14 11:11:35;;;;;;;20.77;4.60;;;;;;;12.56;100.00;100031.77;1866073;75;938686;-75
2020/12/14 11:14:05;;;;;;;18.25;4.78;;;;;;;12.54;100.00;100033.47;1854162;75;938606;-75
2020/12/14 11:16:39;;;;;;;13.70;2.83;;;;;;;12.45;100.00;100039.55;1866206;75;938727;-76
2020/12/14 11:19:07;;;;;;;16.20;3.50;;;;;;;12.41;100.00;100048.88;1853322;75;938767;-76
2020/12/14 11:21:37;;;;;;;14.07;3.57;;;;;;;12.42;100.00;100043.55;1866164;75;937643;-76
2020/12/14 11:24:07;;;;;;;19.05;4.22;;;;;;;12.44;100.00;100039.32;1853547;75;938621;-76
2020/12/14 11:26:37;;;;;;;16.33;4.00;;;;;;;12.51;100.00;100041.08;1845217;76;938738;-77
2020/12/14 11:29:07;;;;;;;19.63;4.23;;;;;;;12.55;100.00;100050.44;1853316;75;937590;-77